createdAt,value
2019-05-29T00:02:06.040Z,13.82
2019-05-29T00:07:10.145Z,13.84
2019-05-29T00:12:18.431Z,13.82
2019-05-29T00:17:19.362Z,13.86
2019-05-29T00:22:22.758Z,13.88
2019-05-29T00:27:26.501Z,13.89
2019-05-29T00:32:30.224Z,13.78
2019-05-29T00:37:33.626Z,13.66
2019-05-29T00:42:37.375Z,13.49
2019-05-29T00:47:41.079Z,13.40
2019-05-29T00:52:44.499Z,13.39
2019-05-29T00:57:48.216Z,13.40
2019-05-29T01:02:51.973Z,13.32
2019-05-29T01:07:55.658Z,13.24
2019-05-29T01:12:59.058Z,13.23
2019-05-29T01:18:02.468Z,13.22
2019-05-29T01:23:06.212Z,13.26
2019-05-29T01:28:09.608Z,13.25
2019-05-29T01:33:16.844Z,13.22
2019-05-29T01:38:19.263Z,13.25
2019-05-29T01:43:23.555Z,13.22
2019-05-29T01:48:27.815Z,13.14
2019-05-29T01:53:31.349Z,12.99
2019-05-29T01:58:34.747Z,12.90
2019-05-29T02:03:38.448Z,12.79
2019-05-29T02:08:41.841Z,12.70
2019-05-29T02:13:45.580Z,12.61
2019-05-29T02:18:49.599Z,12.56
2019-05-29T02:23:53.329Z,12.52
2019-05-29T02:28:56.750Z,12.49
2019-05-29T02:34:00.150Z,12.45
2019-05-29T02:39:05.385Z,12.47
2019-05-29T02:44:08.801Z,12.49
2019-05-29T02:49:12.694Z,12.52
2019-05-29T02:54:16.091Z,12.58
2019-05-29T02:59:21.021Z,12.61
2019-05-29T03:04:26.221Z,12.64
2019-05-29T03:09:30.689Z,12.62
2019-05-29T03:14:34.842Z,12.61
2019-05-29T03:19:38.354Z,12.61
2019-05-29T03:24:41.773Z,12.58
2019-05-29T03:29:45.174Z,12.54
2019-05-29T03:34:48.648Z,12.55
2019-05-29T03:39:52.432Z,12.55
2019-05-29T03:44:55.923Z,12.57
2019-05-29T03:49:59.672Z,12.52
2019-05-29T03:55:03.853Z,12.49
2019-05-29T04:00:07.908Z,12.44
2019-05-29T04:05:11.653Z,12.40
2019-05-29T04:10:16.598Z,12.36
2019-05-29T04:15:20.000Z,12.33
2019-05-29T04:20:23.467Z,12.35
2019-05-29T04:25:33.155Z,12.40
2019-05-29T04:30:38.635Z,12.50
2019-05-29T04:35:42.363Z,12.53
2019-05-29T04:40:46.084Z,12.53
2019-05-29T04:45:49.646Z,12.54
2019-05-29T04:50:53.044Z,12.56
2019-05-29T04:55:56.711Z,12.61
2019-05-29T05:01:00.115Z,12.70
2019-05-29T05:06:03.785Z,12.79
2019-05-29T05:11:09.126Z,12.74
2019-05-29T05:16:12.533Z,12.72
2019-05-29T05:21:16.261Z,12.65
2019-05-29T05:26:19.984Z,12.74
2019-05-29T05:31:23.724Z,12.81
2019-05-29T05:36:27.441Z,12.73
2019-05-29T05:41:30.895Z,12.88
2019-05-29T05:46:35.056Z,12.87
2019-05-29T05:51:42.695Z,12.85
2019-05-29T05:56:43.582Z,12.91
2019-05-29T06:01:47.278Z,13.07
2019-05-29T06:06:50.926Z,13.06
2019-05-29T06:11:54.345Z,13.17
2019-05-29T06:16:57.741Z,13.21
2019-05-29T06:22:01.431Z,13.28
2019-05-29T06:27:04.919Z,13.26
2019-05-29T06:32:08.429Z,13.19
2019-05-29T06:37:11.903Z,13.20
2019-05-29T06:42:15.424Z,13.24
2019-05-29T06:47:18.841Z,13.13
2019-05-29T06:52:22.247Z,13.36
2019-05-29T06:57:26.013Z,13.43
2019-05-29T07:02:31.750Z,13.54
2019-05-29T07:07:35.952Z,13.71
2019-05-29T07:12:40.354Z,13.74
2019-05-29T07:17:44.486Z,13.66
2019-05-29T07:22:48.154Z,13.85
2019-05-29T07:27:51.576Z,13.93
2019-05-29T07:32:58.324Z,13.93
2019-05-29T07:38:00.750Z,13.93
2019-05-29T07:43:04.463Z,13.84
2019-05-29T07:48:07.861Z,13.91
2019-05-29T07:53:11.605Z,13.87
2019-05-29T07:58:15.031Z,14.11
2019-05-29T08:03:18.455Z,14.25
2019-05-29T08:08:22.107Z,14.17
2019-05-29T08:13:25.503Z,14.15
2019-05-29T08:18:28.918Z,14.36
2019-05-29T08:23:32.599Z,14.40
2019-05-29T08:28:36.045Z,14.42
2019-05-29T08:33:40.790Z,14.38
2019-05-29T08:38:45.727Z,14.63
2019-05-29T08:43:50.794Z,14.55
2019-05-29T08:48:54.427Z,14.14
2019-05-29T08:53:57.825Z,14.44
2019-05-29T08:59:01.243Z,14.63
2019-05-29T09:04:05.068Z,14.75
2019-05-29T09:09:08.471Z,14.83
2019-05-29T09:14:11.865Z,15.09
2019-05-29T09:19:16.353Z,15.09
2019-05-29T09:24:20.932Z,15.25
2019-05-29T09:29:25.021Z,15.35
2019-05-29T09:34:28.413Z,15.32
2019-05-29T09:39:31.826Z,15.30
2019-05-29T09:44:39.369Z,15.44
2019-05-29T09:49:40.379Z,15.64
2019-05-29T09:54:43.770Z,15.77
2019-05-29T09:59:47.357Z,16.07
2019-05-29T10:04:50.756Z,16.09
2019-05-29T10:09:55.624Z,16.34
2019-05-29T10:15:00.960Z,16.16
2019-05-29T10:20:08.123Z,16.31
2019-05-29T10:25:12.357Z,16.49
2019-05-29T10:30:16.313Z,16.61
2019-05-29T10:35:20.201Z,16.65
2019-05-29T10:40:23.655Z,16.23
2019-05-29T10:45:27.134Z,15.88
2019-05-29T10:50:30.539Z,15.74
2019-05-29T10:55:34.264Z,15.68
2019-05-29T11:00:39.411Z,15.64
2019-05-29T11:05:43.226Z,15.60
2019-05-29T11:10:47.903Z,15.56
2019-05-29T11:15:52.763Z,15.50
2019-05-29T11:20:57.615Z,15.27
2019-05-29T11:26:01.414Z,15.15
2019-05-29T11:31:06.114Z,15.27
2019-05-29T11:36:13.391Z,15.36
2019-05-29T11:41:25.656Z,15.45
2019-05-29T11:46:20.656Z,15.45
2019-05-29T11:51:24.055Z,15.39
2019-05-29T11:56:27.462Z,14.85
2019-05-29T12:01:48.569Z,14.76
2019-05-29T12:06:36.305Z,14.66
2019-05-29T12:11:40.028Z,14.59
2019-05-29T12:16:43.684Z,14.54
2019-05-29T12:21:47.472Z,14.38
2019-05-29T12:26:52.305Z,14.37
2019-05-29T12:31:57.062Z,14.37
2019-05-29T12:37:01.860Z,14.52
2019-05-29T12:42:06.044Z,14.72
2019-05-29T12:47:10.081Z,14.72
2019-05-29T12:52:13.805Z,14.79
2019-05-29T12:57:17.212Z,14.79
2019-05-29T13:02:20.616Z,15.03
2019-05-29T13:07:24.024Z,14.80
2019-05-29T13:12:27.422Z,14.93
2019-05-29T13:17:31.178Z,15.09
2019-05-29T13:22:35.000Z,14.85
2019-05-29T13:27:38.387Z,15.21
2019-05-29T13:32:42.683Z,15.44
2019-05-29T13:37:46.319Z,15.61
2019-05-29T13:42:49.740Z,15.62
2019-05-29T13:47:53.145Z,16.00
2019-05-29T13:52:57.149Z,16.07
2019-05-29T13:58:01.646Z,16.58
2019-05-29T14:03:06.999Z,16.87
2019-05-29T14:08:11.339Z,16.64
2019-05-29T14:13:14.734Z,16.11
2019-05-29T14:18:18.489Z,15.80
2019-05-29T14:23:22.128Z,15.48
2019-05-29T14:28:25.803Z,15.66
2019-05-29T14:33:29.534Z,15.91
2019-05-29T14:38:32.926Z,16.00
2019-05-29T14:43:36.342Z,16.05
2019-05-29T14:48:39.905Z,16.53
2019-05-29T14:53:43.323Z,17.27
2019-05-29T14:58:46.737Z,17.28
2019-05-29T15:03:50.434Z,17.37
2019-05-29T15:08:54.146Z,17.18
2019-05-29T15:13:57.886Z,16.99
2019-05-29T15:19:01.609Z,17.00
2019-05-29T15:24:05.759Z,16.93
2019-05-29T15:29:12.704Z,16.82
2019-05-29T15:34:14.736Z,17.21
2019-05-29T15:39:18.146Z,17.40
2019-05-29T15:44:21.838Z,17.10
2019-05-29T15:49:25.570Z,16.41
2019-05-29T15:54:29.001Z,16.36
2019-05-29T15:59:32.407Z,16.66
2019-05-29T16:04:35.804Z,16.86
2019-05-29T16:09:39.495Z,16.42
2019-05-29T16:14:42.892Z,16.41
2019-05-29T16:19:46.547Z,16.34
2019-05-29T16:24:50.293Z,16.94
2019-05-29T16:29:54.015Z,16.54
2019-05-29T16:34:57.412Z,16.35
2019-05-29T16:40:01.136Z,16.26
2019-05-29T16:45:08.235Z,16.18
2019-05-29T16:50:13.060Z,16.24
2019-05-29T16:55:17.303Z,16.35
2019-05-29T17:00:21.812Z,15.91
2019-05-29T17:05:25.795Z,16.65
2019-05-29T17:10:36.620Z,16.44
2019-05-29T17:15:40.289Z,16.52
2019-05-29T17:20:47.416Z,16.81
2019-05-29T17:25:50.810Z,16.59
2019-05-29T17:30:54.521Z,16.54
2019-05-29T17:35:57.923Z,16.74
2019-05-29T17:41:01.335Z,16.58
2019-05-29T17:46:04.733Z,16.43
2019-05-29T17:51:08.126Z,16.44
2019-05-29T17:56:25.378Z,16.24
2019-05-29T18:01:18.137Z,16.16
2019-05-29T18:06:22.436Z,16.52
2019-05-29T18:11:27.567Z,16.75
2019-05-29T18:16:31.415Z,16.92
2019-05-29T18:21:34.815Z,16.99
2019-05-29T18:26:46.808Z,16.90
2019-05-29T18:31:43.389Z,16.44
2019-05-29T18:36:46.787Z,16.22
2019-05-29T18:41:50.188Z,15.88
2019-05-29T18:46:53.614Z,15.60
2019-05-29T18:52:00.294Z,15.16
2019-05-29T18:57:14.373Z,14.56
2019-05-29T19:02:08.074Z,14.36
2019-05-29T19:07:11.470Z,14.36
2019-05-29T19:12:15.198Z,14.22
2019-05-29T19:17:18.615Z,14.08
2019-05-29T19:22:22.316Z,13.94
2019-05-29T19:27:36.970Z,13.71
2019-05-29T19:32:32.277Z,13.62
2019-05-29T19:37:36.575Z,13.52
2019-05-29T19:42:40.307Z,13.55
2019-05-29T19:47:43.950Z,13.23
2019-05-29T19:52:47.341Z,12.97
2019-05-29T19:57:56.213Z,12.86
2019-05-29T20:02:56.419Z,12.77
2019-05-29T20:08:00.131Z,12.68
2019-05-29T20:13:03.543Z,12.50
2019-05-29T20:18:06.973Z,12.40
2019-05-29T20:23:10.367Z,12.29
2019-05-29T20:28:14.090Z,12.17
2019-05-29T20:33:17.509Z,12.18
2019-05-29T20:38:20.924Z,12.25
2019-05-29T20:43:24.642Z,12.13
2019-05-29T20:48:28.392Z,11.91
2019-05-29T20:53:33.303Z,11.73
2019-05-29T20:58:37.754Z,11.62
2019-05-29T21:03:42.486Z,11.56
2019-05-29T21:08:46.019Z,11.60
2019-05-29T21:13:49.415Z,11.62
2019-05-29T21:18:52.812Z,11.63
2019-05-29T21:23:56.207Z,11.64
2019-05-29T21:28:59.883Z,11.53
2019-05-29T21:34:03.314Z,11.50
2019-05-29T21:39:09.153Z,11.41
2019-05-29T21:44:12.890Z,11.31
2019-05-29T21:49:16.287Z,11.23
2019-05-29T21:54:20.014Z,11.25
2019-05-29T21:59:23.435Z,11.33
2019-05-29T22:04:26.835Z,11.35
2019-05-29T22:09:30.247Z,11.10
2019-05-29T22:14:33.978Z,10.91
2019-05-29T22:19:37.699Z,10.78
2019-05-29T22:24:41.347Z,10.68
2019-05-29T22:29:44.763Z,10.59
2019-05-29T22:34:48.183Z,10.43
2019-05-29T22:39:51.577Z,10.37
2019-05-29T22:44:55.635Z,10.39
2019-05-29T22:49:59.886Z,10.43
2019-05-29T22:55:03.873Z,10.41
2019-05-29T23:00:08.096Z,10.44
2019-05-29T23:05:11.653Z,10.48
2019-05-29T23:10:15.625Z,10.43
2019-05-29T23:15:19.553Z,10.44
2019-05-29T23:20:22.951Z,10.55
2019-05-29T23:25:26.586Z,10.52
2019-05-29T23:30:30.794Z,10.55
2019-05-29T23:35:34.644Z,10.56
2019-05-29T23:40:38.049Z,10.61
2019-05-29T23:45:41.435Z,10.45
2019-05-29T23:50:45.091Z,10.34
2019-05-29T23:55:48.825Z,10.24
